sensor_id;sensor_type;location;lat;lon;timestamp;P1;durP1;ratioP1;P2;durP2;ratioP2
76733;SDS011;65660;53.288;14.666;2023-02-17T00:03:41;46.23;;;26.17;;
76733;SDS011;65660;53.288;14.666;2023-02-17T00:08:42;50.10;;;26.57;;
76733;SDS011;65660;53.288;14.666;2023-02-17T00:13:43;54.90;;;25.97;;
76733;SDS011;65660;53.288;14.666;2023-02-17T00:18:45;50.80;;;26.60;;
76733;SDS011;65660;53.288;14.666;2023-02-17T00:23:46;50.70;;;26.83;;
76733;SDS011;65660;53.288;14.666;2023-02-17T00:28:48;49.73;;;27.13;;
76733;SDS011;65660;53.288;14.666;2023-02-17T00:33:48;50.57;;;26.47;;
76733;SDS011;65660;53.288;14.666;2023-02-17T00:38:49;50.00;;;26.37;;
76733;SDS011;65660;53.288;14.666;2023-02-17T00:43:49;51.73;;;26.63;;
76733;SDS011;65660;53.288;14.666;2023-02-17T00:48:50;45.90;;;24.67;;
76733;SDS011;65660;53.288;14.666;2023-02-17T00:53:50;48.03;;;25.73;;
76733;SDS011;65660;53.288;14.666;2023-02-17T00:58:51;49.87;;;25.63;;
76733;SDS011;65660;53.288;14.666;2023-02-17T01:03:51;45.37;;;25.03;;
76733;SDS011;65660;53.288;14.666;2023-02-17T01:08:52;47.67;;;25.10;;
76733;SDS011;65660;53.288;14.666;2023-02-17T01:13:53;48.20;;;25.03;;
76733;SDS011;65660;53.288;14.666;2023-02-17T01:18:54;49.87;;;25.67;;
76733;SDS011;65660;53.288;14.666;2023-02-17T01:23:55;47.50;;;25.60;;
76733;SDS011;65660;53.288;14.666;2023-02-17T01:28:57;49.40;;;24.70;;
76733;SDS011;65660;53.288;14.666;2023-02-17T01:33:59;43.73;;;23.23;;
76733;SDS011;65660;53.288;14.666;2023-02-17T01:39:00;51.37;;;25.17;;
76733;SDS011;65660;53.288;14.666;2023-02-17T01:49:20;53.03;;;25.90;;
76733;SDS011;65660;53.288;14.666;2023-02-17T01:54:24;47.73;;;24.77;;
76733;SDS011;65660;53.288;14.666;2023-02-17T01:59:27;47.47;;;23.40;;
76733;SDS011;65660;53.288;14.666;2023-02-17T02:04:30;53.00;;;26.77;;
76733;SDS011;65660;53.288;14.666;2023-02-17T02:09:36;53.50;;;28.10;;
76733;SDS011;65660;53.288;14.666;2023-02-17T02:14:38;49.23;;;25.53;;
76733;SDS011;65660;53.288;14.666;2023-02-17T02:35:48;52.33;;;26.80;;
76733;SDS011;65660;53.288;14.666;2023-02-17T02:40:55;49.90;;;25.50;;
76733;SDS011;65660;53.288;14.666;2023-02-17T02:46:17;47.23;;;24.40;;
76733;SDS011;65660;53.288;14.666;2023-02-17T02:51:28;51.83;;;26.00;;
76733;SDS011;65660;53.288;14.666;2023-02-17T02:56:58;50.57;;;24.90;;
76733;SDS011;65660;53.288;14.666;2023-02-17T03:13:08;43.63;;;23.03;;
76733;SDS011;65660;53.288;14.666;2023-02-17T03:18:09;37.37;;;20.70;;
76733;SDS011;65660;53.288;14.666;2023-02-17T03:23:10;41.43;;;21.70;;
76733;SDS011;65660;53.288;14.666;2023-02-17T03:28:10;43.23;;;22.60;;
76733;SDS011;65660;53.288;14.666;2023-02-17T03:33:11;55.13;;;26.70;;
76733;SDS011;65660;53.288;14.666;2023-02-17T03:38:11;47.13;;;24.13;;
76733;SDS011;65660;53.288;14.666;2023-02-17T03:43:12;46.43;;;24.30;;
76733;SDS011;65660;53.288;14.666;2023-02-17T03:48:12;47.23;;;24.63;;
76733;SDS011;65660;53.288;14.666;2023-02-17T03:53:13;48.83;;;23.80;;
76733;SDS011;65660;53.288;14.666;2023-02-17T03:58:13;49.43;;;25.20;;
76733;SDS011;65660;53.288;14.666;2023-02-17T04:03:14;52.73;;;27.27;;
76733;SDS011;65660;53.288;14.666;2023-02-17T04:08:14;53.70;;;26.30;;
76733;SDS011;65660;53.288;14.666;2023-02-17T04:13:15;54.17;;;27.60;;
76733;SDS011;65660;53.288;14.666;2023-02-17T04:18:16;60.60;;;29.63;;
76733;SDS011;65660;53.288;14.666;2023-02-17T04:23:17;63.80;;;28.93;;
76733;SDS011;65660;53.288;14.666;2023-02-17T04:28:17;61.57;;;30.83;;
76733;SDS011;65660;53.288;14.666;2023-02-17T04:33:18;68.37;;;32.67;;
76733;SDS011;65660;53.288;14.666;2023-02-17T04:38:18;78.20;;;33.70;;
76733;SDS011;65660;53.288;14.666;2023-02-17T04:43:19;77.33;;;32.97;;
76733;SDS011;65660;53.288;14.666;2023-02-17T04:48:19;64.07;;;30.97;;
76733;SDS011;65660;53.288;14.666;2023-02-17T04:53:20;72.43;;;33.60;;
76733;SDS011;65660;53.288;14.666;2023-02-17T04:58:20;66.83;;;32.60;;
76733;SDS011;65660;53.288;14.666;2023-02-17T05:03:21;72.77;;;33.47;;
76733;SDS011;65660;53.288;14.666;2023-02-17T05:08:22;78.67;;;34.17;;
76733;SDS011;65660;53.288;14.666;2023-02-17T05:13:22;90.23;;;36.47;;
76733;SDS011;65660;53.288;14.666;2023-02-17T05:18:23;93.57;;;37.63;;
76733;SDS011;65660;53.288;14.666;2023-02-17T05:23:23;70.03;;;33.20;;
76733;SDS011;65660;53.288;14.666;2023-02-17T05:28:24;70.10;;;33.90;;
76733;SDS011;65660;53.288;14.666;2023-02-17T05:33:24;73.77;;;35.07;;
76733;SDS011;65660;53.288;14.666;2023-02-17T05:38:25;71.07;;;34.13;;
76733;SDS011;65660;53.288;14.666;2023-02-17T05:43:25;75.37;;;36.90;;
76733;SDS011;65660;53.288;14.666;2023-02-17T05:48:25;73.83;;;35.83;;
76733;SDS011;65660;53.288;14.666;2023-02-17T05:53:26;70.90;;;34.27;;
76733;SDS011;65660;53.288;14.666;2023-02-17T05:58:27;72.83;;;35.47;;
76733;SDS011;65660;53.288;14.666;2023-02-17T06:03:27;72.10;;;35.23;;
76733;SDS011;65660;53.288;14.666;2023-02-17T06:08:28;71.87;;;34.33;;
76733;SDS011;65660;53.288;14.666;2023-02-17T06:13:28;75.13;;;35.27;;
76733;SDS011;65660;53.288;14.666;2023-02-17T06:18:29;82.13;;;37.30;;
76733;SDS011;65660;53.288;14.666;2023-02-17T06:23:29;70.10;;;34.23;;
76733;SDS011;65660;53.288;14.666;2023-02-17T06:28:30;56.37;;;30.77;;
76733;SDS011;65660;53.288;14.666;2023-02-17T06:33:30;65.27;;;32.83;;
76733;SDS011;65660;53.288;14.666;2023-02-17T06:38:31;61.57;;;31.30;;
76733;SDS011;65660;53.288;14.666;2023-02-17T06:43:31;67.63;;;33.47;;
76733;SDS011;65660;53.288;14.666;2023-02-17T06:48:32;65.10;;;32.67;;
76733;SDS011;65660;53.288;14.666;2023-02-17T06:53:32;61.87;;;31.47;;
76733;SDS011;65660;53.288;14.666;2023-02-17T06:58:33;68.03;;;32.17;;
76733;SDS011;65660;53.288;14.666;2023-02-17T07:03:33;53.33;;;28.97;;
76733;SDS011;65660;53.288;14.666;2023-02-17T07:08:34;61.13;;;30.27;;
76733;SDS011;65660;53.288;14.666;2023-02-17T07:13:34;55.37;;;30.13;;
76733;SDS011;65660;53.288;14.666;2023-02-17T07:18:35;58.00;;;30.53;;
76733;SDS011;65660;53.288;14.666;2023-02-17T07:23:35;57.43;;;31.10;;
76733;SDS011;65660;53.288;14.666;2023-02-17T07:28:37;57.93;;;29.50;;
76733;SDS011;65660;53.288;14.666;2023-02-17T07:33:38;60.10;;;31.70;;
76733;SDS011;65660;53.288;14.666;2023-02-17T07:38:39;62.67;;;31.67;;
76733;SDS011;65660;53.288;14.666;2023-02-17T07:43:40;72.37;;;33.97;;
76733;SDS011;65660;53.288;14.666;2023-02-17T07:48:41;69.13;;;32.87;;
76733;SDS011;65660;53.288;14.666;2023-02-17T07:53:41;59.77;;;30.40;;
76733;SDS011;65660;53.288;14.666;2023-02-17T07:58:42;66.37;;;32.87;;
76733;SDS011;65660;53.288;14.666;2023-02-17T08:03:44;76.83;;;35.40;;
76733;SDS011;65660;53.288;14.666;2023-02-17T08:08:46;68.03;;;33.17;;
76733;SDS011;65660;53.288;14.666;2023-02-17T08:13:48;78.63;;;37.13;;
76733;SDS011;65660;53.288;14.666;2023-02-17T08:18:48;72.73;;;35.73;;
76733;SDS011;65660;53.288;14.666;2023-02-17T08:23:49;77.33;;;35.87;;
76733;SDS011;65660;53.288;14.666;2023-02-17T08:28:50;82.20;;;37.37;;
76733;SDS011;65660;53.288;14.666;2023-02-17T08:33:52;77.00;;;35.53;;
76733;SDS011;65660;53.288;14.666;2023-02-17T08:38:53;77.17;;;35.37;;
76733;SDS011;65660;53.288;14.666;2023-02-17T08:43:54;67.20;;;34.33;;
76733;SDS011;65660;53.288;14.666;2023-02-17T08:48:56;74.73;;;35.37;;
76733;SDS011;65660;53.288;14.666;2023-02-17T08:53:58;71.70;;;34.77;;
76733;SDS011;65660;53.288;14.666;2023-02-17T08:58:59;80.83;;;38.20;;
76733;SDS011;65660;53.288;14.666;2023-02-17T09:04:00;76.70;;;37.57;;
76733;SDS011;65660;53.288;14.666;2023-02-17T09:09:01;90.67;;;39.50;;
76733;SDS011;65660;53.288;14.666;2023-02-17T09:14:02;75.83;;;35.07;;
76733;SDS011;65660;53.288;14.666;2023-02-17T09:19:03;62.97;;;30.07;;
76733;SDS011;65660;53.288;14.666;2023-02-17T09:24:04;62.93;;;31.07;;
76733;SDS011;65660;53.288;14.666;2023-02-17T09:29:05;59.63;;;29.40;;
76733;SDS011;65660;53.288;14.666;2023-02-17T09:34:06;48.80;;;26.47;;
76733;SDS011;65660;53.288;14.666;2023-02-17T09:39:06;53.03;;;27.73;;
76733;SDS011;65660;53.288;14.666;2023-02-17T09:49:41;46.07;;;25.23;;
76733;SDS011;65660;53.288;14.666;2023-02-17T10:00:28;48.13;;;24.03;;
76733;SDS011;65660;53.288;14.666;2023-02-17T10:05:35;42.63;;;22.90;;
76733;SDS011;65660;53.288;14.666;2023-02-17T10:10:47;42.07;;;22.17;;
76733;SDS011;65660;53.288;14.666;2023-02-17T10:15:52;38.73;;;20.87;;
76733;SDS011;65660;53.288;14.666;2023-02-17T10:20:57;37.70;;;21.10;;
76733;SDS011;65660;53.288;14.666;2023-02-17T10:26:05;40.20;;;20.90;;
76733;SDS011;65660;53.288;14.666;2023-02-17T10:37:13;35.10;;;19.40;;
76733;SDS011;65660;53.288;14.666;2023-02-17T10:42:37;36.10;;;20.57;;
76733;SDS011;65660;53.288;14.666;2023-02-17T10:47:38;37.80;;;20.70;;
76733;SDS011;65660;53.288;14.666;2023-02-17T10:52:39;31.87;;;19.00;;
76733;SDS011;65660;53.288;14.666;2023-02-17T10:57:40;40.70;;;21.60;;
76733;SDS011;65660;53.288;14.666;2023-02-17T11:02:42;43.57;;;23.67;;
76733;SDS011;65660;53.288;14.666;2023-02-17T11:07:46;45.33;;;25.27;;
76733;SDS011;65660;53.288;14.666;2023-02-17T11:12:48;30.90;;;18.07;;
76733;SDS011;65660;53.288;14.666;2023-02-17T11:17:48;24.43;;;14.97;;
76733;SDS011;65660;53.288;14.666;2023-02-17T11:28:21;30.97;;;16.83;;
76733;SDS011;65660;53.288;14.666;2023-02-17T11:33:29;28.57;;;16.27;;
76733;SDS011;65660;53.288;14.666;2023-02-17T11:43:38;29.03;;;15.73;;
76733;SDS011;65660;53.288;14.666;2023-02-17T11:48:48;29.13;;;15.67;;
76733;SDS011;65660;53.288;14.666;2023-02-17T12:10:54;26.77;;;14.70;;
76733;SDS011;65660;53.288;14.666;2023-02-17T12:26:31;36.23;;;19.33;;
76733;SDS011;65660;53.288;14.666;2023-02-17T12:36:52;40.37;;;22.43;;
76733;SDS011;65660;53.288;14.666;2023-02-17T12:42:01;45.43;;;25.63;;
76733;SDS011;65660;53.288;14.666;2023-02-17T12:47:22;39.53;;;23.00;;
76733;SDS011;65660;53.288;14.666;2023-02-17T12:52:29;44.87;;;23.50;;
76733;SDS011;65660;53.288;14.666;2023-02-17T12:57:48;42.63;;;23.97;;
76733;SDS011;65660;53.288;14.666;2023-02-17T13:02:50;38.47;;;22.83;;
76733;SDS011;65660;53.288;14.666;2023-02-17T13:13:27;32.73;;;19.50;;
76733;SDS011;65660;53.288;14.666;2023-02-17T13:18:30;35.53;;;19.13;;
76733;SDS011;65660;53.288;14.666;2023-02-17T13:23:33;32.40;;;17.90;;
76733;SDS011;65660;53.288;14.666;2023-02-17T13:28:36;30.07;;;17.00;;
76733;SDS011;65660;53.288;14.666;2023-02-17T13:33:40;34.47;;;18.40;;
76733;SDS011;65660;53.288;14.666;2023-02-17T13:38:53;31.20;;;17.77;;
76733;SDS011;65660;53.288;14.666;2023-02-17T13:43:58;28.37;;;16.33;;
76733;SDS011;65660;53.288;14.666;2023-02-17T13:49:03;28.43;;;16.73;;
76733;SDS011;65660;53.288;14.666;2023-02-17T13:54:06;30.13;;;16.70;;
76733;SDS011;65660;53.288;14.666;2023-02-17T13:59:09;28.83;;;16.37;;
76733;SDS011;65660;53.288;14.666;2023-02-17T14:04:47;26.87;;;17.00;;
76733;SDS011;65660;53.288;14.666;2023-02-17T14:09:40;27.70;;;16.33;;
76733;SDS011;65660;53.288;14.666;2023-02-17T14:14:41;24.87;;;16.07;;
76733;SDS011;65660;53.288;14.666;2023-02-17T14:19:42;27.50;;;16.00;;
76733;SDS011;65660;53.288;14.666;2023-02-17T14:24:46;25.50;;;15.20;;
76733;SDS011;65660;53.288;14.666;2023-02-17T14:30:11;26.30;;;14.73;;
76733;SDS011;65660;53.288;14.666;2023-02-17T14:35:26;21.93;;;13.47;;
76733;SDS011;65660;53.288;14.666;2023-02-17T14:40:27;25.83;;;14.80;;
76733;SDS011;65660;53.288;14.666;2023-02-17T14:45:27;24.13;;;14.00;;
76733;SDS011;65660;53.288;14.666;2023-02-17T14:50:30;25.37;;;14.03;;
76733;SDS011;65660;53.288;14.666;2023-02-17T14:55:35;24.00;;;13.60;;
76733;SDS011;65660;53.288;14.666;2023-02-17T15:00:37;23.30;;;14.20;;
76733;SDS011;65660;53.288;14.666;2023-02-17T15:05:38;24.30;;;14.23;;
76733;SDS011;65660;53.288;14.666;2023-02-17T15:10:39;24.30;;;13.80;;
76733;SDS011;65660;53.288;14.666;2023-02-17T15:15:40;28.57;;;15.87;;
76733;SDS011;65660;53.288;14.666;2023-02-17T15:20:41;26.60;;;14.43;;
76733;SDS011;65660;53.288;14.666;2023-02-17T15:25:43;25.57;;;13.87;;
76733;SDS011;65660;53.288;14.666;2023-02-17T15:30:45;22.87;;;12.67;;
76733;SDS011;65660;53.288;14.666;2023-02-17T15:35:50;19.70;;;11.67;;
76733;SDS011;65660;53.288;14.666;2023-02-17T15:40:51;22.87;;;12.10;;
76733;SDS011;65660;53.288;14.666;2023-02-17T15:45:52;19.30;;;11.00;;
76733;SDS011;65660;53.288;14.666;2023-02-17T15:50:53;18.07;;;10.30;;
76733;SDS011;65660;53.288;14.666;2023-02-17T15:55:53;19.60;;;10.07;;
76733;SDS011;65660;53.288;14.666;2023-02-17T16:00:55;18.93;;;10.00;;
76733;SDS011;65660;53.288;14.666;2023-02-17T16:05:58;14.33;;;8.23;;
76733;SDS011;65660;53.288;14.666;2023-02-17T16:10:59;13.70;;;7.97;;
76733;SDS011;65660;53.288;14.666;2023-02-17T16:15:59;13.33;;;7.97;;
76733;SDS011;65660;53.288;14.666;2023-02-17T16:21:00;14.60;;;8.17;;
76733;SDS011;65660;53.288;14.666;2023-02-17T16:26:00;14.93;;;8.30;;
76733;SDS011;65660;53.288;14.666;2023-02-17T16:31:01;13.93;;;8.03;;
76733;SDS011;65660;53.288;14.666;2023-02-17T16:36:01;14.60;;;7.73;;
76733;SDS011;65660;53.288;14.666;2023-02-17T16:41:02;14.77;;;7.77;;
76733;SDS011;65660;53.288;14.666;2023-02-17T16:46:03;11.07;;;6.50;;
76733;SDS011;65660;53.288;14.666;2023-02-17T16:51:04;11.00;;;5.83;;
76733;SDS011;65660;53.288;14.666;2023-02-17T16:56:12;31.83;;;13.33;;
76733;SDS011;65660;53.288;14.666;2023-02-17T17:01:42;16.97;;;7.73;;
76733;SDS011;65660;53.288;14.666;2023-02-17T17:06:44;8.93;;;5.23;;
76733;SDS011;65660;53.288;14.666;2023-02-17T17:11:47;6.50;;;4.27;;
76733;SDS011;65660;53.288;14.666;2023-02-17T17:16:50;6.90;;;4.07;;
76733;SDS011;65660;53.288;14.666;2023-02-17T17:21:52;5.80;;;3.70;;
76733;SDS011;65660;53.288;14.666;2023-02-17T17:26:52;5.80;;;3.20;;
76733;SDS011;65660;53.288;14.666;2023-02-17T17:31:53;5.37;;;2.70;;
76733;SDS011;65660;53.288;14.666;2023-02-17T17:36:53;6.07;;;2.70;;
76733;SDS011;65660;53.288;14.666;2023-02-17T17:41:54;3.37;;;2.30;;
76733;SDS011;65660;53.288;14.666;2023-02-17T17:46:54;8.67;;;2.37;;
76733;SDS011;65660;53.288;14.666;2023-02-17T17:51:55;5.87;;;2.30;;
76733;SDS011;65660;53.288;14.666;2023-02-17T17:56:55;4.87;;;2.10;;
76733;SDS011;65660;53.288;14.666;2023-02-17T18:01:56;6.10;;;1.57;;
76733;SDS011;65660;53.288;14.666;2023-02-17T18:06:57;8.57;;;2.20;;
76733;SDS011;65660;53.288;14.666;2023-02-17T18:11:59;9.93;;;1.87;;
76733;SDS011;65660;53.288;14.666;2023-02-17T18:17:02;6.33;;;2.30;;
76733;SDS011;65660;53.288;14.666;2023-02-17T18:22:03;10.93;;;2.73;;
76733;SDS011;65660;53.288;14.666;2023-02-17T18:27:04;7.57;;;2.43;;
76733;SDS011;65660;53.288;14.666;2023-02-17T18:32:04;11.43;;;2.77;;
76733;SDS011;65660;53.288;14.666;2023-02-17T18:37:05;9.80;;;2.10;;
76733;SDS011;65660;53.288;14.666;2023-02-17T18:42:05;11.20;;;2.70;;
76733;SDS011;65660;53.288;14.666;2023-02-17T18:47:06;12.37;;;3.17;;
76733;SDS011;65660;53.288;14.666;2023-02-17T18:52:07;10.07;;;3.23;;
76733;SDS011;65660;53.288;14.666;2023-02-17T18:57:07;14.00;;;3.40;;
76733;SDS011;65660;53.288;14.666;2023-02-17T19:02:08;11.17;;;3.37;;
76733;SDS011;65660;53.288;14.666;2023-02-17T19:07:10;12.53;;;2.60;;
76733;SDS011;65660;53.288;14.666;2023-02-17T19:12:11;11.33;;;2.60;;
76733;SDS011;65660;53.288;14.666;2023-02-17T19:17:11;13.17;;;2.90;;
76733;SDS011;65660;53.288;14.666;2023-02-17T19:22:12;11.20;;;2.97;;
76733;SDS011;65660;53.288;14.666;2023-02-17T19:27:13;11.67;;;2.67;;
76733;SDS011;65660;53.288;14.666;2023-02-17T19:32:13;9.23;;;3.47;;
76733;SDS011;65660;53.288;14.666;2023-02-17T19:37:13;14.97;;;4.47;;
76733;SDS011;65660;53.288;14.666;2023-02-17T19:42:14;10.13;;;2.63;;
76733;SDS011;65660;53.288;14.666;2023-02-17T19:47:15;16.10;;;3.17;;
76733;SDS011;65660;53.288;14.666;2023-02-17T19:52:15;11.37;;;2.70;;
76733;SDS011;65660;53.288;14.666;2023-02-17T19:57:16;12.33;;;3.03;;
76733;SDS011;65660;53.288;14.666;2023-02-17T20:02:16;11.83;;;2.83;;
76733;SDS011;65660;53.288;14.666;2023-02-17T20:07:17;13.03;;;3.43;;
76733;SDS011;65660;53.288;14.666;2023-02-17T20:12:17;11.00;;;2.70;;
76733;SDS011;65660;53.288;14.666;2023-02-17T20:17:18;14.50;;;3.23;;
76733;SDS011;65660;53.288;14.666;2023-02-17T20:22:18;9.33;;;3.03;;
76733;SDS011;65660;53.288;14.666;2023-02-17T20:27:19;11.30;;;3.00;;
76733;SDS011;65660;53.288;14.666;2023-02-17T20:32:19;12.10;;;3.07;;
76733;SDS011;65660;53.288;14.666;2023-02-17T20:37:20;10.90;;;3.00;;
76733;SDS011;65660;53.288;14.666;2023-02-17T20:42:20;13.77;;;3.10;;
76733;SDS011;65660;53.288;14.666;2023-02-17T20:47:21;14.07;;;3.00;;
76733;SDS011;65660;53.288;14.666;2023-02-17T20:52:21;11.60;;;3.00;;
76733;SDS011;65660;53.288;14.666;2023-02-17T20:57:22;12.20;;;2.90;;
76733;SDS011;65660;53.288;14.666;2023-02-17T21:02:23;9.63;;;2.90;;
76733;SDS011;65660;53.288;14.666;2023-02-17T21:07:23;14.33;;;3.23;;
76733;SDS011;65660;53.288;14.666;2023-02-17T21:12:24;12.00;;;2.87;;
76733;SDS011;65660;53.288;14.666;2023-02-17T21:17:25;12.87;;;3.00;;
76733;SDS011;65660;53.288;14.666;2023-02-17T21:22:26;13.30;;;3.47;;
76733;SDS011;65660;53.288;14.666;2023-02-17T21:27:26;14.63;;;3.10;;
76733;SDS011;65660;53.288;14.666;2023-02-17T21:32:27;11.90;;;3.27;;
76733;SDS011;65660;53.288;14.666;2023-02-17T21:37:27;14.70;;;3.10;;
76733;SDS011;65660;53.288;14.666;2023-02-17T21:42:28;9.13;;;3.03;;
76733;SDS011;65660;53.288;14.666;2023-02-17T21:47:28;12.80;;;3.00;;
76733;SDS011;65660;53.288;14.666;2023-02-17T21:52:29;15.37;;;3.50;;
76733;SDS011;65660;53.288;14.666;2023-02-17T21:57:30;12.60;;;3.10;;
76733;SDS011;65660;53.288;14.666;2023-02-17T22:02:30;15.20;;;3.40;;
76733;SDS011;65660;53.288;14.666;2023-02-17T22:07:31;11.53;;;2.73;;
76733;SDS011;65660;53.288;14.666;2023-02-17T22:12:33;8.37;;;2.80;;
76733;SDS011;65660;53.288;14.666;2023-02-17T22:17:34;14.30;;;3.50;;
76733;SDS011;65660;53.288;14.666;2023-02-17T22:22:35;9.90;;;2.73;;
76733;SDS011;65660;53.288;14.666;2023-02-17T22:27:35;12.03;;;2.80;;
76733;SDS011;65660;53.288;14.666;2023-02-17T22:32:36;11.43;;;2.87;;
76733;SDS011;65660;53.288;14.666;2023-02-17T22:37:37;12.20;;;3.20;;
76733;SDS011;65660;53.288;14.666;2023-02-17T22:42:38;10.73;;;2.90;;
76733;SDS011;65660;53.288;14.666;2023-02-17T22:47:38;13.30;;;3.13;;
76733;SDS011;65660;53.288;14.666;2023-02-17T22:52:39;12.67;;;2.50;;
76733;SDS011;65660;53.288;14.666;2023-02-17T22:57:39;10.93;;;2.80;;
76733;SDS011;65660;53.288;14.666;2023-02-17T23:02:40;12.43;;;2.60;;
76733;SDS011;65660;53.288;14.666;2023-02-17T23:07:40;13.50;;;3.33;;
76733;SDS011;65660;53.288;14.666;2023-02-17T23:12:41;10.97;;;3.10;;
76733;SDS011;65660;53.288;14.666;2023-02-17T23:17:42;11.33;;;2.70;;
76733;SDS011;65660;53.288;14.666;2023-02-17T23:22:42;13.13;;;2.80;;
76733;SDS011;65660;53.288;14.666;2023-02-17T23:27:43;10.77;;;2.67;;
76733;SDS011;65660;53.288;14.666;2023-02-17T23:32:43;10.47;;;4.00;;
76733;SDS011;65660;53.288;14.666;2023-02-17T23:37:44;6.40;;;2.40;;
76733;SDS011;65660;53.288;14.666;2023-02-17T23:42:44;12.70;;;4.83;;
76733;SDS011;65660;53.288;14.666;2023-02-17T23:47:45;10.97;;;4.10;;
76733;SDS011;65660;53.288;14.666;2023-02-17T23:52:45;12.47;;;5.20;;
76733;SDS011;65660;53.288;14.666;2023-02-17T23:57:46;8.43;;;4.10;;
